Time;durP1;ratioP1;P1;durP2;ratioP2;P2;SDS_P1;SDS_P2;PMS_P1;PMS_P2;Temp;Humidity;BMP_temperature;BMP_pressure;BME280_temperature;BME280_humidity;BME280_pressure;Samples;Min_cycle;Max_cycle;Signal;HPM_P1;HPM_P2
2024/02/06 00:00:31;;;;;;;10.20;5.80;;;;;;;8.03;57.71;99203.81;7000422;28;20237;-79
2024/02/06 00:03:54;;;;;;;7.43;4.83;;;;;;;7.87;57.49;99178.91;7000590;28;20214;-80
2024/02/06 00:07:16;;;;;;;12.77;5.67;;;;;;;7.80;58.84;99186.88;6996785;28;20207;-80
2024/02/06 00:10:37;;;;;;;10.20;6.20;;;;;;;7.89;58.83;99184.97;6999513;28;20259;-79
2024/02/06 00:13:59;;;;;;;10.10;6.43;;;;;;;8.24;58.18;99204.00;6995168;28;20206;-79
2024/02/06 00:17:21;;;;;;;12.60;6.20;;;;;;;7.87;58.99;99198.56;6997249;28;20213;-80
2024/02/06 00:20:44;;;;;;;11.00;6.43;;;;;;;7.94;59.16;99180.72;7000127;28;20234;-80
2024/02/06 00:24:06;;;;;;;10.33;6.03;;;;;;;8.21;58.99;99195.47;7000793;28;20339;-80
2024/02/06 00:27:27;;;;;;;9.37;5.63;;;;;;;8.54;58.69;99196.88;6988537;28;20210;-80
2024/02/06 00:30:49;;;;;;;7.20;6.00;;;;;;;8.39;58.31;99190.63;7001980;28;20250;-81
2024/02/06 00:34:10;;;;;;;7.23;6.50;;;;;;;8.35;58.17;99195.50;7001671;28;20301;-79
2024/02/06 00:37:34;;;;;;;10.30;6.20;;;;;;;8.00;58.83;99201.47;6999036;28;20293;-80
2024/02/06 00:40:56;;;;;;;6.27;5.60;;;;;;;8.29;59.70;99198.94;6999899;28;20236;-79
2024/02/06 00:44:19;;;;;;;12.53;9.03;;;;;;;8.38;61.52;99186.25;6995163;28;20212;-80
2024/02/06 00:47:40;;;;;;;11.50;8.90;;;;;;;9.00;59.91;99196.53;6999477;28;20197;-80
2024/02/06 00:51:04;;;;;;;12.73;9.00;;;;;;;9.17;59.62;99204.19;6993721;28;20237;-79
2024/02/06 00:54:27;;;;;;;12.07;8.53;;;;;;;9.49;58.69;99198.44;6986459;28;20202;-79
2024/02/06 00:57:49;;;;;;;10.40;9.30;;;;;;;9.40;59.13;99206.78;6999304;28;20331;-80
2024/02/06 01:01:12;;;;;;;10.50;9.23;;;;;;;9.38;59.78;99217.75;6994355;28;20222;-80
2024/02/06 01:04:34;;;;;;;16.63;10.07;;;;;;;9.67;59.64;99198.00;6999098;28;20204;-80
2024/02/06 01:07:56;;;;;;;12.23;9.47;;;;;;;9.82;58.99;99205.03;6980358;28;20206;-79
2024/02/06 01:11:19;;;;;;;12.63;9.57;;;;;;;9.80;59.12;99198.97;6999237;28;20782;-79
2024/02/06 01:14:40;;;;;;;12.87;9.50;;;;;;;9.89;59.22;99181.69;6999477;28;20208;-79
2024/02/06 01:18:02;;;;;;;14.03;9.87;;;;;;;9.88;58.71;99187.25;6998837;28;20682;-79
2024/02/06 01:21:23;;;;;;;13.77;9.80;;;;;;;9.98;59.22;99190.50;7002492;28;20267;-79
2024/02/06 01:24:45;;;;;;;15.93;10.40;;;;;;;10.07;58.60;99176.72;7005011;28;20298;-80
2024/02/06 01:28:12;;;;;;;13.03;10.03;;;;;;;10.12;59.00;99195.00;6991920;28;20661;-79
2024/02/06 01:31:33;;;;;;;18.57;10.20;;;;;;;10.17;58.48;99185.28;6995605;28;20688;-80
2024/02/06 01:34:55;;;;;;;10.93;9.30;;;;;;;10.12;58.91;99195.00;6987885;28;20207;-80
2024/02/06 01:38:17;;;;;;;11.43;8.80;;;;;;;10.15;58.79;99190.06;7005841;28;20218;-79
2024/02/06 01:41:39;;;;;;;13.17;8.50;;;;;;;10.30;58.34;99198.06;7006793;28;20229;-80
2024/02/06 01:45:02;;;;;;;13.40;9.10;;;;;;;10.27;58.27;99172.34;7001985;28;20205;-80
2024/02/06 01:48:23;;;;;;;11.77;9.37;;;;;;;10.44;57.76;99184.50;7002798;28;20679;-79
2024/02/06 01:51:51;;;;;;;13.53;9.03;;;;;;;10.36;57.95;99184.66;6994665;28;20264;-80
2024/02/06 01:55:13;;;;;;;10.43;8.87;;;;;;;10.53;57.41;99177.13;6972664;28;20205;-80
2024/02/06 01:58:35;;;;;;;15.53;9.67;;;;;;;10.45;57.52;99186.16;6999221;28;20223;-80
2024/02/06 02:01:58;;;;;;;12.33;9.10;;;;;;;10.17;57.80;99190.69;6989930;28;20232;-80
2024/02/06 02:05:22;;;;;;;14.57;9.07;;;;;;;10.30;57.77;99161.19;6992825;28;20269;-80
2024/02/06 02:08:44;;;;;;;14.40;9.07;;;;;;;9.91;58.44;99150.00;6991991;28;20201;-80
2024/02/06 02:12:07;;;;;;;13.77;8.57;;;;;;;10.14;58.16;99174.06;6991454;28;20316;-79
2024/02/06 02:15:28;;;;;;;12.57;8.67;;;;;;;10.45;57.70;99193.44;6999124;28;20314;-80
2024/02/06 02:18:51;;;;;;;15.00;9.07;;;;;;;10.56;57.38;99191.03;6988015;28;20229;-80
2024/02/06 02:22:14;;;;;;;12.73;9.00;;;;;;;10.45;57.48;99194.25;6976702;28;20237;-80
2024/02/06 02:25:36;;;;;;;15.40;8.30;;;;;;;10.55;57.40;99186.69;7006470;28;20222;-80
2024/02/06 02:28:58;;;;;;;12.00;8.30;;;;;;;10.61;56.93;99167.03;6983034;28;20292;-79
2024/02/06 02:32:25;;;;;;;12.90;8.83;;;;;;;10.52;57.24;99186.25;6985246;28;20244;-80
2024/02/06 02:35:47;;;;;;;13.90;8.20;;;;;;;10.31;57.43;99184.41;6999719;28;20280;-80
2024/02/06 02:39:12;;;;;;;11.87;8.50;;;;;;;10.40;57.48;99158.16;6999847;28;20741;-80
2024/02/06 02:42:34;;;;;;;14.70;9.27;;;;;;;10.41;57.38;99190.31;7002151;28;20578;-79
2024/02/06 02:45:55;;;;;;;13.93;8.30;;;;;;;10.43;56.92;99199.03;6991188;28;20210;-79
2024/02/06 02:49:17;;;;;;;12.73;8.20;;;;;;;10.52;57.24;99189.75;6995705;28;20290;-79
2024/02/06 02:52:40;;;;;;;10.60;8.03;;;;;;;10.52;56.39;99149.31;7001300;28;20206;-79
2024/02/06 02:56:02;;;;;;;14.37;8.33;;;;;;;10.84;56.46;99191.03;7000880;28;20202;-80
2024/02/06 02:59:30;;;;;;;13.80;8.60;;;;;;;10.78;56.27;99194.50;7001503;28;20249;-79
2024/02/06 03:02:51;;;;;;;12.17;8.37;;;;;;;10.57;56.32;99168.44;7002120;28;20287;-79
2024/02/06 03:06:18;;;;;;;11.40;7.83;;;;;;;10.68;56.03;99177.88;6998098;28;20214;-78
2024/02/06 03:09:42;;;;;;;11.40;8.03;;;;;;;10.53;56.54;99160.94;6995980;28;20256;-79
2024/02/06 03:13:09;;;;;;;14.80;8.17;;;;;;;10.35;57.06;99164.13;6998189;28;20227;-79
2024/02/06 03:16:30;;;;;;;14.13;8.47;;;;;;;10.17;56.60;99125.22;7001538;28;20216;-80
2024/02/06 03:19:52;;;;;;;12.23;7.70;;;;;;;9.81;57.13;99098.31;6999316;28;20217;-78
2024/02/06 03:23:14;;;;;;;10.83;8.17;;;;;;;10.32;56.67;99167.19;7002913;28;20229;-79
2024/02/06 03:26:36;;;;;;;13.23;9.07;;;;;;;10.49;56.18;99170.44;7002314;28;20217;-79
2024/02/06 03:30:02;;;;;;;14.07;7.63;;;;;;;10.57;56.33;99176.53;7001039;28;20307;-80
2024/02/06 03:33:23;;;;;;;11.93;7.90;;;;;;;10.15;57.17;99171.19;6998262;28;20198;-80
2024/02/06 03:36:45;;;;;;;17.00;8.30;;;;;;;10.08;57.04;99156.84;6981473;28;20293;-80
2024/02/06 03:40:08;;;;;;;12.73;8.83;;;;;;;10.26;56.40;99143.72;6998146;28;20261;-80
2024/02/06 03:43:30;;;;;;;12.53;8.37;;;;;;;9.73;58.17;99189.16;6997753;28;20217;-79
2024/02/06 03:46:53;;;;;;;12.00;7.63;;;;;;;9.87;57.64;99191.81;6997217;28;20316;-79
2024/02/06 03:50:14;;;;;;;13.80;8.77;;;;;;;10.41;56.71;99190.31;6982219;28;20295;-80
2024/02/06 03:53:37;;;;;;;12.07;8.23;;;;;;;10.06;56.97;99164.28;6998312;28;20288;-80
2024/02/06 03:56:59;;;;;;;11.33;8.03;;;;;;;10.55;56.06;99186.69;6997291;28;20617;-80
2024/02/06 04:00:21;;;;;;;11.80;7.87;;;;;;;10.47;56.28;99185.97;6998481;28;20249;-80
2024/02/06 04:03:45;;;;;;;13.23;7.87;;;;;;;10.16;56.45;99177.44;6998724;28;20274;-80
2024/02/06 04:07:07;;;;;;;14.23;9.13;;;;;;;10.04;56.54;99142.06;6999391;28;20205;-80
2024/02/06 04:10:29;;;;;;;14.37;7.87;;;;;;;10.22;56.36;99196.34;7000065;28;20236;-79
2024/02/06 04:13:51;;;;;;;13.53;8.60;;;;;;;10.21;55.58;99156.13;6995005;28;20257;-80
2024/02/06 04:17:14;;;;;;;10.70;8.30;;;;;;;10.62;55.33;99192.94;6995841;28;20221;-79
2024/02/06 04:20:37;;;;;;;10.20;8.00;;;;;;;10.24;55.96;99183.53;7001690;28;20228;-79
2024/02/06 04:23:58;;;;;;;12.47;8.60;;;;;;;10.49;55.56;99178.53;7000122;28;20296;-79
2024/02/06 04:27:20;;;;;;;12.10;8.07;;;;;;;10.36;56.05;99197.28;6995113;28;20198;-80
2024/02/06 04:30:41;;;;;;;15.77;8.33;;;;;;;10.40;55.47;99185.09;6999714;28;20242;-79
2024/02/06 04:34:03;;;;;;;12.57;8.13;;;;;;;10.61;55.33;99193.13;6995347;28;20283;-80
2024/02/06 04:37:26;;;;;;;14.70;9.47;;;;;;;10.39;55.54;99183.44;6996590;28;20623;-80
2024/02/06 04:40:48;;;;;;;13.87;8.77;;;;;;;10.34;55.87;99175.09;6980032;28;20230;-80
2024/02/06 04:44:09;;;;;;;13.57;8.70;;;;;;;10.24;55.52;99180.81;6998807;28;20255;-80
2024/02/06 04:47:33;;;;;;;14.00;9.80;;;;;;;10.20;55.90;99184.06;6999089;28;20202;-79
2024/02/06 04:50:54;;;;;;;12.50;8.67;;;;;;;10.14;56.10;99179.47;6999296;28;20324;-82
2024/02/06 04:54:17;;;;;;;16.63;8.90;;;;;;;10.10;56.58;99168.25;6999866;28;20255;-80
2024/02/06 04:57:39;;;;;;;16.30;9.17;;;;;;;9.98;56.05;99144.69;6976744;28;20384;-79
2024/02/06 05:01:01;;;;;;;14.37;9.30;;;;;;;9.87;56.07;99172.94;6999984;28;20214;-79
2024/02/06 05:04:23;;;;;;;10.83;9.40;;;;;;;9.93;56.24;99168.69;7000045;28;20212;-80
2024/02/06 05:07:44;;;;;;;12.23;9.07;;;;;;;10.01;56.08;99171.22;6999396;28;20240;-79
2024/02/06 05:11:07;;;;;;;11.60;8.80;;;;;;;9.76;55.99;99154.63;6999736;28;20313;-79
2024/02/06 05:14:29;;;;;;;15.73;9.23;;;;;;;9.99;56.33;99163.34;6981335;28;20287;-81
2024/02/06 05:17:50;;;;;;;15.87;9.37;;;;;;;9.57;55.79;99168.69;6993908;28;20201;-79
2024/02/06 05:21:13;;;;;;;15.20;9.60;;;;;;;9.80;56.18;99152.38;6999230;28;20225;-79
2024/02/06 05:24:34;;;;;;;12.30;8.53;;;;;;;9.92;55.52;99158.94;6999887;28;20343;-79
2024/02/06 05:27:58;;;;;;;14.03;8.67;;;;;;;9.73;56.20;99154.16;6999819;28;20198;-79
2024/02/06 05:31:20;;;;;;;11.00;8.23;;;;;;;9.86;56.02;99133.59;6990808;28;20226;-79
2024/02/06 05:34:41;;;;;;;12.50;9.00;;;;;;;9.58;56.39;99123.78;6999779;28;20224;-79
2024/02/06 05:38:04;;;;;;;19.10;8.23;;;;;;;9.68;56.50;99119.75;6998433;28;20194;-79
2024/02/06 05:41:25;;;;;;;9.90;7.90;;;;;;;9.56;56.20;99120.47;6998886;28;20221;-79
2024/02/06 05:44:49;;;;;;;9.33;6.87;;;;;;;9.85;55.72;99110.38;6999859;28;20205;-79
2024/02/06 05:48:10;;;;;;;10.23;5.80;;;;;;;9.82;55.24;99115.31;6999567;28;20348;-80
2024/02/06 05:51:32;;;;;;;14.37;6.77;;;;;;;9.86;54.76;99078.91;6996757;28;20359;-79
2024/02/06 05:54:53;;;;;;;6.90;5.60;;;;;;;10.05;55.10;99114.09;6998858;28;20242;-79
2024/02/06 05:58:15;;;;;;;8.13;5.47;;;;;;;10.25;54.46;99114.28;6998152;28;20285;-79
2024/02/06 06:01:38;;;;;;;7.97;5.70;;;;;;;10.53;53.67;99107.03;6981176;28;20320;-80
2024/02/06 06:04:59;;;;;;;8.80;5.90;;;;;;;9.95;55.18;99116.28;6981699;28;20572;-80
2024/02/06 06:08:21;;;;;;;9.03;6.80;;;;;;;9.89;55.26;99110.81;6988544;28;20202;-80
2024/02/06 06:11:42;;;;;;;10.47;6.70;;;;;;;10.04;55.09;99111.63;6970217;28;20305;-80
2024/02/06 06:15:05;;;;;;;8.93;6.37;;;;;;;9.57;56.72;99100.59;6995543;28;20676;-79
2024/02/06 06:18:27;;;;;;;9.73;6.57;;;;;;;9.41;56.48;99112.44;6997183;28;20732;-80
2024/02/06 06:21:49;;;;;;;11.47;7.80;;;;;;;9.72;56.19;99120.19;6997366;28;20687;-80
2024/02/06 06:25:11;;;;;;;12.13;8.60;;;;;;;9.40;57.84;99124.19;6998040;28;20581;-79
2024/02/06 06:28:32;;;;;;;15.37;10.30;;;;;;;9.43;57.80;99122.97;6996644;28;20209;-80
2024/02/06 06:31:54;;;;;;;14.80;10.23;;;;;;;9.65;57.56;99116.59;6996636;28;20229;-80
2024/02/06 06:35:17;;;;;;;14.23;9.50;;;;;;;9.41;57.66;99112.44;6970127;28;20286;-80
2024/02/06 06:38:39;;;;;;;13.43;9.17;;;;;;;9.53;56.99;99118.13;6993782;28;20700;-80
2024/02/06 06:42:00;;;;;;;10.30;7.97;;;;;;;9.35;57.12;99117.72;6997486;28;20710;-80
2024/02/06 06:45:22;;;;;;;11.10;8.10;;;;;;;9.10;57.64;99100.25;7000471;28;20263;-80
2024/02/06 06:48:43;;;;;;;11.00;7.40;;;;;;;9.15;58.00;99106.72;6983480;28;20645;-79
2024/02/06 06:52:08;;;;;;;10.67;6.40;;;;;;;8.54;58.84;99094.75;7001862;28;20366;-80
2024/02/06 06:55:29;;;;;;;14.17;6.97;;;;;;;8.98;58.05;99100.91;6999972;28;20221;-80
2024/02/06 06:58:51;;;;;;;8.97;6.70;;;;;;;9.15;57.01;99077.13;6994443;28;20697;-80
2024/02/06 07:02:13;;;;;;;8.77;6.63;;;;;;;8.75;57.21;99070.63;6988583;28;20234;-79
2024/02/06 07:05:34;;;;;;;6.67;5.97;;;;;;;8.68;58.52;99108.19;6982338;28;20707;-79
2024/02/06 07:09:04;;;;;;;9.63;6.60;;;;;;;8.67;58.21;99095.75;6992546;28;20212;-79
2024/02/06 07:12:26;;;;;;;10.60;6.60;;;;;;;8.68;58.15;99073.25;6999469;28;20290;-80
2024/02/06 07:15:53;;;;;;;9.97;6.50;;;;;;;8.29;58.48;99061.09;6999228;28;20684;-80
2024/02/06 07:19:15;;;;;;;9.37;6.13;;;;;;;8.84;57.20;99097.22;6998271;28;20604;-80
2024/02/06 07:22:36;;;;;;;8.33;5.67;;;;;;;8.86;57.25;99097.88;6999243;28;20263;-80
2024/02/06 07:26:00;;;;;;;7.70;6.23;;;;;;;8.74;57.62;99111.97;7001019;28;20209;-80
2024/02/06 07:29:22;;;;;;;8.03;5.27;;;;;;;8.85;55.70;99050.47;6999673;28;20227;-80
2024/02/06 07:32:44;;;;;;;8.23;5.73;;;;;;;8.89;56.83;99102.88;6996278;28;20228;-80
2024/02/06 07:36:07;;;;;;;9.43;6.37;;;;;;;8.56;56.97;99066.66;6993967;28;20344;-81
2024/02/06 07:39:32;;;;;;;8.20;5.87;;;;;;;8.54;57.13;99094.75;6992177;28;20270;-80
2024/02/06 07:43:00;;;;;;;7.13;5.37;;;;;;;8.86;56.65;99119.41;6993621;28;20226;-80
2024/02/06 07:46:21;;;;;;;7.07;5.73;;;;;;;8.86;57.08;99119.41;6997041;28;20209;-80
2024/02/06 07:49:44;;;;;;;11.60;6.20;;;;;;;8.75;56.86;99119.84;6990073;28;20304;-80
2024/02/06 07:53:05;;;;;;;8.50;5.50;;;;;;;8.82;56.90;99126.16;6998114;28;20205;-79
2024/02/06 07:56:30;;;;;;;10.10;6.30;;;;;;;9.11;56.21;99110.00;7002374;28;20544;-79
2024/02/06 07:59:53;;;;;;;11.47;5.90;;;;;;;8.79;56.50;99115.75;7002026;28;20231;-79
2024/02/06 08:03:18;;;;;;;9.67;6.00;;;;;;;9.28;55.58;99131.09;7006086;28;20320;-80
2024/02/06 08:06:39;;;;;;;7.13;5.50;;;;;;;9.24;55.64;99121.75;7007443;28;20247;-81
2024/02/06 08:10:01;;;;;;;8.17;5.70;;;;;;;9.21;55.51;99124.78;6990579;28;20237;-78
2024/02/06 08:13:22;;;;;;;9.47;5.60;;;;;;;9.27;55.73;99131.31;6995752;28;20599;-80
2024/02/06 08:16:58;;;;;;;12.50;5.63;;;;;;;9.57;54.61;99111.34;7000915;28;20231;-79
2024/02/06 08:20:21;;;;;;;7.13;5.80;;;;;;;9.60;55.22;99129.78;6998850;28;20606;-79
2024/02/06 08:24:12;;;;;;;8.00;6.60;;;;;;;10.03;53.55;99121.56;7001349;28;20311;-79
2024/02/06 08:27:47;;;;;;;8.77;5.63;;;;;;;9.94;53.58;99146.09;7006906;28;20194;-80
2024/02/06 08:31:10;;;;;;;7.47;5.40;;;;;;;10.05;53.38;99129.44;7006601;28;20266;-80
2024/02/06 08:34:34;;;;;;;8.83;6.83;;;;;;;10.24;52.69;99126.94;7003939;28;20680;-80
2024/02/06 08:37:57;;;;;;;8.90;5.43;;;;;;;9.99;53.08;99119.41;6999923;28;20838;-79
2024/02/06 08:41:19;;;;;;;9.00;5.43;;;;;;;9.85;54.50;99152.63;7000148;28;20241;-80
2024/02/06 08:44:43;;;;;;;8.90;6.37;;;;;;;10.33;53.14;99144.59;6988175;28;20226;-79
2024/02/06 08:48:05;;;;;;;7.47;5.27;;;;;;;10.43;52.78;99130.78;6986995;28;20331;-80
2024/02/06 08:51:31;;;;;;;9.13;5.30;;;;;;;9.25;55.70;99096.50;6980042;28;20226;-78
2024/02/06 08:54:53;;;;;;;9.47;5.80;;;;;;;9.31;56.25;99125.34;6995497;28;20285;-78
2024/02/06 08:58:15;;;;;;;9.97;5.97;;;;;;;9.65;55.58;99117.44;7001216;28;20209;-79
2024/02/06 09:01:36;;;;;;;7.80;5.90;;;;;;;10.06;54.09;99098.78;7000529;28;20245;-79
2024/02/06 09:04:58;;;;;;;8.57;5.63;;;;;;;10.38;53.60;99100.88;6994989;28;20220;-79
2024/02/06 09:08:21;;;;;;;7.60;5.70;;;;;;;10.28;53.71;99089.66;7000207;28;20205;-79
2024/02/06 09:11:43;;;;;;;8.37;5.50;;;;;;;10.30;54.40;99087.56;7000718;28;20263;-79
2024/02/06 09:15:06;;;;;;;8.07;6.10;;;;;;;10.36;53.66;99076.00;6999500;28;20561;-79
2024/02/06 09:18:28;;;;;;;7.23;6.03;;;;;;;10.83;52.98;99082.31;6998401;28;20331;-79
2024/02/06 09:21:49;;;;;;;7.60;6.17;;;;;;;10.39;53.61;99070.25;6993466;28;20352;-79
2024/02/06 09:25:13;;;;;;;11.43;6.13;;;;;;;10.48;53.34;99067.19;6998808;28;20905;-79
2024/02/06 09:28:35;;;;;;;10.33;6.03;;;;;;;10.32;54.62;99067.50;6999562;28;20198;-81
2024/02/06 09:31:57;;;;;;;8.90;5.20;;;;;;;10.00;54.59;99069.91;7000154;28;20363;-81
2024/02/06 09:35:18;;;;;;;10.77;6.60;;;;;;;10.28;54.94;99076.16;6991434;28;20217;-79
2024/02/06 09:38:44;;;;;;;16.27;6.77;;;;;;;10.67;53.94;99060.22;6996222;28;20244;-79
2024/02/06 09:42:07;;;;;;;10.30;6.00;;;;;;;10.63;54.25;99058.97;7001121;28;20241;-79
2024/02/06 09:45:29;;;;;;;7.20;6.37;;;;;;;10.80;53.61;99058.44;7001908;28;20210;-78
2024/02/06 09:48:50;;;;;;;8.40;5.27;;;;;;;10.53;54.42;99059.34;7000406;28;20232;-79
2024/02/06 09:52:12;;;;;;;7.43;5.60;;;;;;;10.78;53.72;99059.66;6992641;28;20257;-78
2024/02/06 09:55:34;;;;;;;10.37;5.73;;;;;;;10.68;54.31;99043.03;6989238;28;20297;-79
2024/02/06 09:59:01;;;;;;;7.20;5.40;;;;;;;10.64;54.49;99047.16;6998566;28;20287;-79
2024/02/06 10:02:24;;;;;;;7.33;5.30;;;;;;;10.82;53.87;99047.44;6999444;28;20329;-79
2024/02/06 10:05:47;;;;;;;13.03;8.90;;;;;;;10.52;54.97;99040.66;6995106;28;20201;-79
2024/02/06 10:09:09;;;;;;;9.83;5.70;;;;;;;10.59;54.57;99036.97;6986560;28;20295;-78
2024/02/06 10:12:31;;;;;;;6.63;5.17;;;;;;;10.55;54.97;99061.81;6993295;28;20201;-80
2024/02/06 10:15:54;;;;;;;6.83;5.00;;;;;;;10.73;54.82;99062.13;7007302;28;20202;-80
2024/02/06 10:19:15;;;;;;;5.83;4.57;;;;;;;10.63;54.30;99053.59;7002610;28;20202;-80
2024/02/06 10:22:37;;;;;;;7.20;4.73;;;;;;;10.79;54.51;99062.16;7002272;28;20316;-79
2024/02/06 10:26:04;;;;;;;7.67;4.50;;;;;;;10.94;53.35;99051.22;7001803;28;20295;-80
2024/02/06 10:29:27;;;;;;;6.27;4.30;;;;;;;10.86;53.89;99046.03;6992720;28;20214;-79
2024/02/06 10:32:50;;;;;;;8.60;4.33;;;;;;;11.17;53.26;99030.97;7001454;28;20233;-82
2024/02/06 10:36:18;;;;;;;7.90;5.07;;;;;;;11.53;52.42;99027.94;7001667;28;20237;-81
2024/02/06 10:39:53;;;;;;;9.73;4.70;;;;;;;11.54;52.93;99038.53;6997669;28;20374;-82
2024/02/06 10:43:14;;;;;;;7.63;4.07;;;;;;;11.77;52.51;99057.09;7001375;28;20217;-78
2024/02/06 10:46:37;;;;;;;6.07;4.33;;;;;;;11.94;51.80;99052.94;6989010;28;20209;-82
2024/02/06 10:50:05;;;;;;;5.70;3.80;;;;;;;12.07;51.31;99044.81;7000826;28;20232;-79
2024/02/06 10:53:27;;;;;;;3.97;3.60;;;;;;;11.71;51.83;99044.41;7008319;28;20201;-79
2024/02/06 10:56:51;;;;;;;4.00;3.07;;;;;;;11.34;52.52;99012.53;6998118;28;20229;-79
2024/02/06 11:00:15;;;;;;;5.77;4.03;;;;;;;11.66;51.34;99018.03;6992376;28;20272;-81
2024/02/06 11:03:40;;;;;;;4.90;3.50;;;;;;;11.76;51.14;99026.53;6999200;28;20591;-80
2024/02/06 11:07:06;;;;;;;3.53;3.10;;;;;;;11.83;51.39;99024.69;6998602;28;20313;-80
2024/02/06 11:10:34;;;;;;;4.53;3.27;;;;;;;12.09;51.03;99010.34;6999121;28;20395;-82
2024/02/06 11:13:56;;;;;;;3.57;3.00;;;;;;;11.89;50.64;99014.91;7003365;28;20317;-83
2024/02/06 11:17:18;;;;;;;3.50;2.83;;;;;;;12.45;50.18;99003.38;6996508;28;20198;-83
2024/02/06 11:20:42;;;;;;;3.33;2.83;;;;;;;12.36;49.65;99006.53;7002547;28;20824;-80
2024/02/06 11:24:07;;;;;;;2.63;2.40;;;;;;;12.46;49.74;99004.22;6997365;28;20229;-81
2024/02/06 11:27:28;;;;;;;4.67;3.10;;;;;;;12.46;49.73;98983.41;6999891;28;20221;-80
2024/02/06 11:30:51;;;;;;;4.10;2.80;;;;;;;12.28;50.60;98990.53;6997721;28;20305;-80
2024/02/06 11:34:13;;;;;;;3.27;2.80;;;;;;;12.65;49.08;98977.13;6999830;28;20212;-80
2024/02/06 11:37:35;;;;;;;3.17;2.87;;;;;;;12.16;49.91;98973.31;7000106;28;20575;-80
2024/02/06 11:41:08;;;;;;;8.30;3.00;;;;;;;12.49;49.75;98979.44;6998083;28;20240;-80
2024/02/06 11:44:29;;;;;;;5.20;3.10;;;;;;;12.90;48.84;98985.31;7000030;28;20255;-80
2024/02/06 11:47:54;;;;;;;4.47;2.63;;;;;;;13.39;47.30;98989.03;6998910;28;20248;-80
2024/02/06 11:51:24;;;;;;;3.87;2.53;;;;;;;13.37;47.60;98990.28;6999565;28;20233;-80
2024/02/06 11:54:46;;;;;;;4.60;3.07;;;;;;;13.01;48.24;98993.63;6997470;28;20193;-80
2024/02/06 11:58:09;;;;;;;4.20;2.73;;;;;;;12.74;48.95;98980.41;6999197;28;20283;-80
2024/02/06 12:01:31;;;;;;;6.03;2.80;;;;;;;13.16;48.07;98977.09;6984448;28;20246;-82
2024/02/06 12:04:53;;;;;;;3.00;2.70;;;;;;;13.42;47.49;98971.50;6968440;28;20839;-79
2024/02/06 12:08:19;;;;;;;5.03;2.80;;;;;;;13.43;47.60;98951.50;6968095;28;20204;-80
2024/02/06 12:11:43;;;;;;;3.27;2.67;;;;;;;12.96;48.38;98946.59;6968853;28;20219;-80
2024/02/06 12:15:07;;;;;;;4.97;2.40;;;;;;;13.27;48.01;98954.75;6968992;28;20210;-80
2024/02/06 12:18:28;;;;;;;3.77;2.73;;;;;;;13.44;47.67;98945.88;6998753;28;20239;-80
2024/02/06 12:21:59;;;;;;;3.03;2.73;;;;;;;13.54;47.11;98942.66;6992404;28;20249;-83
2024/02/06 12:25:20;;;;;;;3.57;3.03;;;;;;;13.37;47.72;98936.13;6975950;28;20213;-80
2024/02/06 12:28:42;;;;;;;3.77;2.83;;;;;;;13.41;47.65;98951.75;6986590;28;20198;-80
2024/02/06 12:32:05;;;;;;;4.10;2.80;;;;;;;13.46;47.36;98926.69;6981437;28;20225;-80
2024/02/06 12:35:27;;;;;;;3.90;2.73;;;;;;;13.44;47.25;98928.78;6994523;28;22775;-81
2024/02/06 12:38:51;;;;;;;2.93;2.57;;;;;;;13.21;47.71;98915.81;6994787;28;20252;-80
2024/02/06 12:42:17;;;;;;;5.40;2.80;;;;;;;13.36;47.46;98924.47;7000126;28;20320;-80
2024/02/06 12:45:41;;;;;;;3.67;2.50;;;;;;;13.49;47.28;98908.13;7001097;28;20225;-81
2024/02/06 12:49:04;;;;;;;6.27;2.53;;;;;;;13.65;47.33;98906.72;6999391;28;20206;-80
2024/02/06 12:52:26;;;;;;;3.83;3.00;;;;;;;13.76;46.89;98909.53;7001273;28;20206;-80
2024/02/06 12:55:50;;;;;;;5.03;2.80;;;;;;;14.07;46.17;98901.31;7007604;28;20231;-80
2024/02/06 12:59:12;;;;;;;4.50;4.03;;;;;;;14.17;46.18;98908.94;7007618;28;20207;-80
2024/02/06 13:02:36;;;;;;;5.13;3.10;;;;;;;14.48;45.61;98893.34;7003172;28;20284;-80
2024/02/06 13:06:00;;;;;;;5.33;2.43;;;;;;;14.16;45.96;98901.84;7000224;28;20364;-80
2024/02/06 13:09:26;;;;;;;3.53;2.47;;;;;;;14.63;44.92;98891.06;7007828;28;20695;-80
2024/02/06 13:12:48;;;;;;;4.93;2.43;;;;;;;14.60;44.17;98879.84;7002859;28;20253;-79
2024/02/06 13:16:13;;;;;;;4.53;2.37;;;;;;;13.49;46.80;98900.00;6995314;28;20199;-77
2024/02/06 13:19:35;;;;;;;2.90;2.20;;;;;;;13.74;46.59;98889.16;6998847;28;20771;-77
2024/02/06 13:23:08;;;;;;;4.27;2.57;;;;;;;13.48;46.81;98892.94;7000882;28;20293;-76
2024/02/06 13:26:30;;;;;;;5.57;2.40;;;;;;;14.14;45.69;98869.53;6997805;28;20206;-78
2024/02/06 13:29:51;;;;;;;4.07;2.40;;;;;;;14.33;45.06;98863.06;6997606;28;20231;-77
2024/02/06 13:33:13;;;;;;;2.50;2.30;;;;;;;14.29;45.15;98863.75;6998078;28;20360;-78
2024/02/06 13:36:35;;;;;;;5.27;2.40;;;;;;;13.60;46.41;98861.34;6998318;28;20211;-77
2024/02/06 13:39:58;;;;;;;3.90;2.47;;;;;;;13.54;46.38;98861.41;6993283;28;20283;-76
2024/02/06 13:43:20;;;;;;;2.97;2.47;;;;;;;13.40;47.06;98849.84;6999920;28;20379;-77
2024/02/06 13:46:42;;;;;;;2.73;2.30;;;;;;;13.53;46.49;98830.78;6999223;28;20220;-77
2024/02/06 13:50:04;;;;;;;5.23;2.60;;;;;;;13.65;46.60;98828.16;6996868;28;20709;-78
2024/02/06 13:53:25;;;;;;;2.20;2.00;;;;;;;14.03;45.75;98848.59;6997624;28;20211;-78
2024/02/06 13:56:51;;;;;;;4.13;2.20;;;;;;;13.75;45.74;98804.91;6996759;28;20254;-78
2024/02/06 14:00:13;;;;;;;3.67;2.50;;;;;;;13.66;46.51;98827.94;6991637;28;20281;-77
2024/02/06 14:03:36;;;;;;;2.90;2.30;;;;;;;13.71;45.89;98824.56;6997345;28;20262;-77
2024/02/06 14:06:58;;;;;;;3.63;2.57;;;;;;;13.14;47.12;98828.41;6997054;28;20203;-77
2024/02/06 14:10:19;;;;;;;3.57;2.40;;;;;;;13.16;47.60;98809.25;6997299;28;20226;-78
2024/02/06 14:13:42;;;;;;;4.73;2.43;;;;;;;13.32;46.91;98827.63;6993870;28;20199;-76
2024/02/06 14:17:04;;;;;;;2.57;2.20;;;;;;;12.96;47.46;98817.53;6993244;28;20219;-78
2024/02/06 14:20:26;;;;;;;2.23;2.00;;;;;;;12.91;47.92;98816.47;6996646;28;20743;-78
2024/02/06 14:23:47;;;;;;;3.80;2.50;;;;;;;13.34;46.64;98806.59;6997380;28;20236;-78
2024/02/06 14:27:09;;;;;;;3.50;2.40;;;;;;;13.28;46.28;98786.63;7002713;28;20592;-77
2024/02/06 14:30:32;;;;;;;4.30;2.53;;;;;;;13.32;46.93;98801.41;6982412;28;20228;-78
2024/02/06 14:33:54;;;;;;;3.77;2.00;;;;;;;12.78;47.46;98797.66;6993541;28;20263;-78
2024/02/06 14:37:15;;;;;;;3.50;2.20;;;;;;;13.12;46.90;98780.97;6997610;28;20674;-77
2024/02/06 14:40:37;;;;;;;3.30;2.23;;;;;;;13.57;46.14;98788.63;6992983;28;20264;-82
2024/02/06 14:43:58;;;;;;;4.87;2.50;;;;;;;13.54;45.87;98774.72;7003115;28;20229;-83
2024/02/06 14:47:21;;;;;;;3.43;2.50;;;;;;;13.06;46.87;98776.44;6997067;28;20244;-78
2024/02/06 14:50:43;;;;;;;4.30;2.53;;;;;;;13.67;45.58;98770.00;6998923;28;20689;-79
2024/02/06 14:54:05;;;;;;;4.30;2.30;;;;;;;12.96;47.44;98782.34;6996451;28;20243;-79
2024/02/06 14:57:26;;;;;;;3.70;2.27;;;;;;;13.05;47.29;98794.53;6996256;28;20243;-79
2024/02/06 15:00:48;;;;;;;2.60;2.40;;;;;;;13.28;46.90;98796.66;6993956;28;20252;-78
2024/02/06 15:04:11;;;;;;;2.47;2.20;;;;;;;12.79;47.83;98791.19;6997381;28;20360;-78
2024/02/06 15:07:35;;;;;;;5.23;2.30;;;;;;;13.43;46.56;98789.84;6999042;28;20196;-79
2024/02/06 15:10:56;;;;;;;4.70;2.50;;;;;;;13.23;46.49;98783.75;6996225;28;20707;-78
2024/02/06 15:14:18;;;;;;;4.27;2.23;;;;;;;13.56;45.92;98768.03;6995869;28;21150;-79
2024/02/06 15:17:39;;;;;;;3.23;2.17;;;;;;;13.16;46.54;98784.91;6997020;28;20234;-80
2024/02/06 15:21:02;;;;;;;7.13;2.30;;;;;;;13.38;45.97;98778.84;6990822;28;20230;-80
2024/02/06 15:24:24;;;;;;;3.17;2.30;;;;;;;13.72;45.14;98767.44;6998814;28;20317;-80
2024/02/06 15:27:45;;;;;;;3.27;2.50;;;;;;;13.73;45.12;98762.81;6998793;28;20333;-80
2024/02/06 15:31:07;;;;;;;5.80;3.60;;;;;;;13.31;45.69;98755.56;6998560;28;20366;-80
2024/02/06 15:34:28;;;;;;;4.40;2.30;;;;;;;13.78;45.10;98765.69;6998539;28;20691;-79
2024/02/06 15:37:51;;;;;;;2.63;2.43;;;;;;;13.27;46.34;98763.31;6996705;28;20296;-79
2024/02/06 15:41:13;;;;;;;2.47;2.20;;;;;;;12.82;46.97;98764.53;6997844;28;20238;-79
2024/02/06 15:44:35;;;;;;;2.93;2.20;;;;;;;13.38;45.60;98742.78;6996047;28;20293;-80
2024/02/06 15:47:56;;;;;;;4.47;2.30;;;;;;;13.44;45.47;98759.00;6992362;28;20243;-80
2024/02/06 15:51:19;;;;;;;7.27;2.67;;;;;;;13.40;45.78;98757.78;6997791;28;20306;-81